createdAt,value
2023-02-27T00:00:33.236Z,99841.41
2023-02-27T00:03:20.910Z,99862.47
2023-02-27T00:05:48.960Z,99873.56
2023-02-27T00:08:16.414Z,99875.13
2023-02-27T00:10:44.231Z,99883.06
2023-02-27T00:13:11.660Z,99884.75
2023-02-27T00:15:41.064Z,99884.06
2023-02-27T00:18:08.701Z,99872.97
2023-02-27T00:20:38.345Z,99888.19
2023-02-27T00:23:07.947Z,99883.31
2023-02-27T00:25:36.610Z,99880.97
2023-02-27T00:28:05.034Z,99880.59
2023-02-27T00:30:33.050Z,99894.31
2023-02-27T00:33:00.739Z,99892.81
2023-02-27T00:35:28.726Z,99889.19
2023-02-27T00:37:56.783Z,99901.06
2023-02-27T00:40:25.546Z,99901.97
2023-02-27T00:42:53.605Z,99901.59
2023-02-27T00:45:21.684Z,99903.88
2023-02-27T00:47:49.239Z,99902.50
2023-02-27T00:50:17.237Z,99906.13
2023-02-27T00:52:44.819Z,99900.56
2023-02-27T00:55:12.893Z,99903.41
2023-02-27T00:57:40.750Z,99895.28
2023-02-27T01:00:10.726Z,99904.06
2023-02-27T01:02:39.155Z,99907.69
2023-02-27T01:05:09.354Z,99917.50
2023-02-27T01:07:37.689Z,99936.31
2023-02-27T01:10:07.646Z,99930.63
2023-02-27T01:12:36.137Z,99930.00
2023-02-27T01:15:06.116Z,99936.34
2023-02-27T01:17:33.835Z,99948.81
2023-02-27T01:20:01.982Z,99948.22
2023-02-27T01:22:29.402Z,99940.78
2023-02-27T01:24:57.311Z,99943.34
2023-02-27T01:27:24.844Z,99950.22
2023-02-27T01:29:52.695Z,99948.56
2023-02-27T01:32:20.335Z,99950.94
2023-02-27T01:34:48.229Z,99960.72
2023-02-27T01:37:15.757Z,99967.75
2023-02-27T01:39:43.955Z,99978.63
2023-02-27T01:42:25.866Z,99993.84
2023-02-27T01:45:12.093Z,99994.53
2023-02-27T01:47:47.270Z,99988.13
2023-02-27T01:50:16.699Z,99997.50
2023-02-27T01:52:47.142Z,99999.13
2023-02-27T01:55:15.799Z,100008.41
2023-02-27T01:57:46.429Z,100012.41
2023-02-27T02:00:16.504Z,100026.69
2023-02-27T02:03:08.660Z,100016.69
2023-02-27T02:05:36.776Z,100008.69
2023-02-27T02:08:05.540Z,100003.06
2023-02-27T02:10:34.036Z,100020.66
2023-02-27T02:13:04.879Z,100025.22
2023-02-27T02:15:39.630Z,100036.00
2023-02-27T02:18:34.072Z,100031.19
2023-02-27T02:21:42.177Z,100029.47
2023-02-27T02:24:57.551Z,100036.84
2023-02-27T02:27:36.773Z,100043.41
2023-02-27T02:30:35.360Z,100042.13
2023-02-27T02:34:19.234Z,100058.75
2023-02-27T02:37:01.334Z,100069.88
2023-02-27T02:39:45.048Z,100054.81
2023-02-27T02:42:36.928Z,100079.69
2023-02-27T02:45:19.813Z,100080.69
2023-02-27T02:47:52.888Z,100084.84
2023-02-27T02:50:49.488Z,100091.66
2023-02-27T02:53:41.700Z,100094.25
2023-02-27T02:56:46.298Z,100095.47
2023-02-27T02:59:31.020Z,100102.78
2023-02-27T03:02:13.513Z,100121.19
2023-02-27T03:04:58.492Z,100124.19
2023-02-27T03:07:33.081Z,100124.03
2023-02-27T03:10:09.187Z,100140.13
2023-02-27T03:12:44.350Z,100132.91
2023-02-27T03:15:16.084Z,100146.00
2023-02-27T03:17:49.011Z,100144.94
2023-02-27T03:20:27.708Z,100147.53
2023-02-27T03:23:01.852Z,100162.53
2023-02-27T03:25:29.673Z,100161.50
2023-02-27T03:28:05.987Z,100155.28
2023-02-27T03:30:41.534Z,100162.94
2023-02-27T03:33:21.566Z,100169.81
2023-02-27T03:36:02.948Z,100175.22
2023-02-27T03:38:49.399Z,100185.03
2023-02-27T03:41:39.835Z,100184.47
2023-02-27T03:45:05.636Z,100208.00
2023-02-27T03:47:34.621Z,100207.41
2023-02-27T03:50:02.997Z,100209.72
2023-02-27T03:52:31.581Z,100219.25
2023-02-27T03:55:24.382Z,100222.41
2023-02-27T03:57:53.163Z,100223.19
2023-02-27T04:00:24.881Z,100232.19
2023-02-27T04:02:56.616Z,100242.28
2023-02-27T04:05:29.161Z,100243.56
2023-02-27T04:08:19.448Z,100239.31
2023-02-27T04:11:14.411Z,100242.22
2023-02-27T04:14:30.982Z,100253.31
2023-02-27T04:17:24.508Z,100249.63
2023-02-27T04:20:10.624Z,100262.84
2023-02-27T04:23:31.825Z,100266.56
2023-02-27T04:26:08.104Z,100257.63
2023-02-27T04:28:58.789Z,100248.09
2023-02-27T04:31:48.090Z,100258.41
2023-02-27T04:34:34.321Z,100258.72
2023-02-27T04:37:21.110Z,100261.38
2023-02-27T04:40:06.359Z,100274.34
2023-02-27T04:42:40.309Z,100283.56
2023-02-27T04:45:15.320Z,100288.41
2023-02-27T04:48:03.550Z,100291.03
2023-02-27T04:50:45.384Z,100296.03
2023-02-27T04:53:56.493Z,100303.16
2023-02-27T04:56:33.267Z,100299.28
2023-02-27T04:59:09.444Z,100291.47
2023-02-27T05:01:51.495Z,100292.56
2023-02-27T05:04:22.896Z,100314.78
2023-02-27T05:06:55.146Z,100326.41
2023-02-27T05:09:49.559Z,100322.13
2023-02-27T05:12:26.979Z,100336.88
2023-02-27T05:15:58.862Z,100357.75
2023-02-27T05:18:27.097Z,100355.75
2023-02-27T05:21:22.228Z,100359.22
2023-02-27T05:24:28.687Z,100366.56
2023-02-27T05:27:17.910Z,100363.78
2023-02-27T05:29:52.707Z,100382.03
2023-02-27T05:32:33.937Z,100396.25
2023-02-27T05:35:20.079Z,100404.34
2023-02-27T05:38:11.642Z,100402.06
2023-02-27T05:40:52.436Z,100399.72
2023-02-27T05:43:26.837Z,100407.16
2023-02-27T05:46:06.835Z,100409.84
2023-02-27T05:48:42.904Z,100415.59
2023-02-27T05:51:15.315Z,100422.25
2023-02-27T05:53:51.172Z,100430.69
2023-02-27T05:56:23.678Z,100419.31
2023-02-27T05:59:17.372Z,100425.41
2023-02-27T06:01:46.444Z,100432.03
2023-02-27T06:04:14.376Z,100430.22
2023-02-27T06:06:42.402Z,100436.53
2023-02-27T06:09:10.144Z,100443.09
2023-02-27T06:11:37.911Z,100443.03
2023-02-27T06:14:05.429Z,100445.69
2023-02-27T06:16:38.159Z,100451.25
2023-02-27T06:19:06.738Z,100449.91
2023-02-27T06:21:34.542Z,100460.94
2023-02-27T06:24:01.996Z,100458.81
2023-02-27T06:26:29.835Z,100461.16
2023-02-27T06:28:57.388Z,100464.53
2023-02-27T06:31:25.206Z,100474.56
2023-02-27T06:33:52.765Z,100474.69
2023-02-27T06:36:20.480Z,100488.47
2023-02-27T06:38:47.984Z,100494.84
2023-02-27T06:41:15.790Z,100506.50
2023-02-27T06:43:43.357Z,100509.91
2023-02-27T06:46:11.296Z,100510.91
2023-02-27T06:48:38.838Z,100507.75
2023-02-27T06:51:07.130Z,100526.03
2023-02-27T06:53:34.718Z,100517.16
2023-02-27T06:56:02.443Z,100517.72
2023-02-27T06:58:30.040Z,100514.25
2023-02-27T07:01:00.986Z,100511.88
2023-02-27T07:03:28.577Z,100528.34
2023-02-27T07:05:58.880Z,100531.53
2023-02-27T07:08:26.411Z,100520.19
2023-02-27T07:10:54.211Z,100523.09
2023-02-27T07:13:21.800Z,100521.44
2023-02-27T07:15:52.361Z,100524.53
2023-02-27T07:18:20.213Z,100516.03
2023-02-27T07:20:51.646Z,100522.63
2023-02-27T07:23:19.277Z,100526.56
2023-02-27T07:25:48.312Z,100524.41
2023-02-27T07:28:16.186Z,100533.88
2023-02-27T07:30:44.039Z,100534.16
2023-02-27T07:33:11.796Z,100531.78
2023-02-27T07:35:39.560Z,100543.91
2023-02-27T07:38:07.109Z,100551.78
2023-02-27T07:40:34.891Z,100560.72
2023-02-27T07:43:02.321Z,100567.88
2023-02-27T07:45:30.168Z,100570.25
2023-02-27T07:47:57.645Z,100578.03
2023-02-27T07:50:25.445Z,100579.69
2023-02-27T07:52:53.356Z,100580.56
2023-02-27T07:55:21.272Z,100578.47
2023-02-27T07:57:48.723Z,100583.69
2023-02-27T08:00:17.650Z,100581.00
2023-02-27T08:02:45.498Z,100586.19
2023-02-27T08:05:13.478Z,100588.31
2023-02-27T08:07:40.942Z,100578.03
2023-02-27T08:10:10.333Z,100571.97
2023-02-27T08:12:38.012Z,100584.09
2023-02-27T08:15:07.206Z,100581.34
2023-02-27T08:17:34.639Z,100581.19
2023-02-27T08:20:02.607Z,100586.84
2023-02-27T08:22:30.095Z,100581.47
2023-02-27T08:24:57.877Z,100582.72
2023-02-27T08:27:25.419Z,100586.41
2023-02-27T08:29:53.476Z,100595.09
2023-02-27T08:32:21.139Z,100602.84
2023-02-27T08:34:48.954Z,100596.44
2023-02-27T08:37:16.383Z,100594.25
2023-02-27T08:39:44.597Z,100602.13
2023-02-27T08:42:12.115Z,100603.84
2023-02-27T08:44:39.858Z,100609.31
2023-02-27T08:47:07.482Z,100622.03
2023-02-27T08:49:35.322Z,100612.41
2023-02-27T08:52:04.168Z,100625.63
2023-02-27T08:54:32.452Z,100630.94
2023-02-27T08:56:59.931Z,100631.22
2023-02-27T08:59:27.782Z,100632.88
2023-02-27T09:01:55.401Z,100631.75
2023-02-27T09:04:23.285Z,100641.97
2023-02-27T09:06:50.742Z,100646.41
2023-02-27T09:09:18.483Z,100635.78
2023-02-27T09:11:46.365Z,100638.94
2023-02-27T09:14:14.242Z,100638.94
2023-02-27T09:16:42.055Z,100648.16
2023-02-27T09:19:09.943Z,100644.59
2023-02-27T09:21:37.527Z,100653.53
2023-02-27T09:24:18.773Z,100654.53
2023-02-27T09:26:49.823Z,100664.59
2023-02-27T09:29:18.435Z,100660.88
2023-02-27T09:31:46.326Z,100657.25
2023-02-27T09:34:14.089Z,100663.69
2023-02-27T09:36:41.637Z,100667.91
2023-02-27T09:39:12.338Z,100665.25
2023-02-27T09:42:11.770Z,100669.06
2023-02-27T09:44:47.065Z,100673.28
2023-02-27T09:47:29.377Z,100683.38
2023-02-27T09:50:05.461Z,100688.66
2023-02-27T09:52:36.986Z,100688.59
2023-02-27T09:55:21.626Z,100690.78
2023-02-27T09:58:24.377Z,100687.38
2023-02-27T10:00:58.918Z,100689.84
2023-02-27T10:04:28.970Z,100696.19
2023-02-27T10:07:05.358Z,100686.88
2023-02-27T10:09:44.652Z,100688.41
2023-02-27T10:12:35.908Z,100692.84
2023-02-27T10:15:20.924Z,100690.91
2023-02-27T10:17:54.857Z,100693.38
2023-02-27T10:20:33.503Z,100693.38
2023-02-27T10:23:12.491Z,100694.84
2023-02-27T10:25:48.255Z,100693.19
2023-02-27T10:28:20.741Z,100703.69
2023-02-27T10:30:52.176Z,100713.69
2023-02-27T10:33:42.567Z,100706.72
2023-02-27T10:36:23.583Z,100710.44
2023-02-27T10:39:06.920Z,100696.59
2023-02-27T10:41:37.929Z,100690.66
2023-02-27T10:44:06.289Z,100698.00
2023-02-27T10:46:38.644Z,100701.78
2023-02-27T10:49:20.403Z,100696.97
2023-02-27T10:52:07.470Z,100700.03
2023-02-27T10:54:35.897Z,100707.28
2023-02-27T10:57:27.743Z,100711.47
2023-02-27T11:00:06.923Z,100706.06
2023-02-27T11:02:42.096Z,100697.53
2023-02-27T11:05:32.679Z,100691.13
2023-02-27T11:08:23.147Z,100691.13
2023-02-27T11:11:27.585Z,100691.13
2023-02-27T11:14:15.213Z,100681.59
2023-02-27T11:16:51.166Z,100680.00
2023-02-27T11:19:39.740Z,100681.53
2023-02-27T11:22:17.295Z,100684.59
2023-02-27T11:24:45.101Z,100674.09
2023-02-27T11:27:30.243Z,100685.63
2023-02-27T11:30:06.870Z,100696.09
2023-02-27T11:32:45.829Z,100700.25
2023-02-27T11:35:33.411Z,100707.34
2023-02-27T11:38:16.792Z,100713.66
2023-02-27T11:41:01.832Z,100709.84
2023-02-27T11:43:48.247Z,100710.84
2023-02-27T11:46:46.167Z,100710.19
2023-02-27T11:49:19.794Z,100717.00
2023-02-27T11:51:59.597Z,100725.03
2023-02-27T11:54:48.747Z,100743.09
2023-02-27T11:57:35.392Z,100739.72
2023-02-27T12:00:26.285Z,100733.19
2023-02-27T12:03:25.068Z,100735.94
2023-02-27T12:06:01.746Z,100738.59
2023-02-27T12:08:32.928Z,100737.56
2023-02-27T12:11:29.803Z,100727.72
2023-02-27T12:14:30.069Z,100717.91
2023-02-27T12:17:29.694Z,100734.28
2023-02-27T12:20:38.699Z,100736.41
2023-02-27T12:23:26.455Z,100720.13
2023-02-27T12:26:34.429Z,100726.97
2023-02-27T12:29:36.007Z,100733.19
2023-02-27T12:32:54.257Z,100739.94
2023-02-27T12:35:33.117Z,100738.44
2023-02-27T12:38:02.400Z,100748.81
2023-02-27T12:40:39.342Z,100738.94
2023-02-27T12:43:46.690Z,100747.13
2023-02-27T12:46:28.268Z,100744.97
2023-02-27T12:49:05.672Z,100737.66
2023-02-27T12:52:15.982Z,100730.94
2023-02-27T12:55:06.424Z,100731.13
2023-02-27T12:58:01.869Z,100746.44
2023-02-27T13:01:10.622Z,100747.09
2023-02-27T13:04:02.030Z,100746.63
2023-02-27T13:06:51.818Z,100756.28
2023-02-27T13:09:33.766Z,100746.09
2023-02-27T13:12:22.236Z,100752.88
2023-02-27T13:15:18.707Z,100743.13
2023-02-27T13:17:54.013Z,100739.16
2023-02-27T13:20:21.742Z,100743.69
2023-02-27T13:23:19.077Z,100749.59
2023-02-27T13:25:51.311Z,100762.97
2023-02-27T13:28:27.367Z,100767.59
2023-02-27T13:31:28.627Z,100768.47
2023-02-27T13:34:39.674Z,100766.66
2023-02-27T13:37:09.926Z,100761.91
2023-02-27T13:39:47.032Z,100760.13
2023-02-27T13:42:26.968Z,100756.38
2023-02-27T13:45:06.393Z,100749.00
2023-02-27T13:47:47.644Z,100756.53
2023-02-27T13:50:35.238Z,100748.34
2023-02-27T13:53:16.301Z,100744.91
2023-02-27T13:55:43.907Z,100740.72
2023-02-27T13:58:19.598Z,100735.50
2023-02-27T14:00:57.504Z,100735.19
2023-02-27T14:03:32.114Z,100733.94
2023-02-27T14:06:04.884Z,100738.72
2023-02-27T14:09:08.858Z,100739.94
2023-02-27T14:11:51.192Z,100740.22
2023-02-27T14:14:50.144Z,100746.31
2023-02-27T14:17:37.696Z,100751.56
2023-02-27T14:20:16.967Z,100749.47
2023-02-27T14:23:27.048Z,100744.75
2023-02-27T14:26:00.104Z,100741.06
2023-02-27T14:28:36.517Z,100735.53
2023-02-27T14:31:45.247Z,100740.00
2023-02-27T14:34:19.408Z,100737.84
2023-02-27T14:37:17.338Z,100733.97
2023-02-27T14:39:50.920Z,100733.22
2023-02-27T14:42:52.070Z,100721.53
2023-02-27T14:45:24.508Z,100728.94
2023-02-27T14:47:53.514Z,100741.13
2023-02-27T14:50:37.449Z,100740.28
2023-02-27T14:53:07.754Z,100739.50
2023-02-27T14:55:37.429Z,100745.81
2023-02-27T14:58:16.402Z,100744.16
2023-02-27T15:01:06.241Z,100745.47
2023-02-27T15:03:46.793Z,100744.53
2023-02-27T15:06:40.497Z,100736.09
2023-02-27T15:09:08.954Z,100739.69
2023-02-27T15:11:43.162Z,100746.63
2023-02-27T15:14:22.154Z,100751.38
2023-02-27T15:16:55.957Z,100748.94
2023-02-27T15:19:28.177Z,100750.53
2023-02-27T15:21:59.950Z,100749.16
2023-02-27T15:24:49.761Z,100755.50
2023-02-27T15:27:22.872Z,100769.28
2023-02-27T15:30:00.022Z,100766.91
2023-02-27T15:32:35.430Z,100779.16
2023-02-27T15:35:12.214Z,100775.97
2023-02-27T15:37:40.485Z,100777.06
2023-02-27T15:40:17.713Z,100786.38
2023-02-27T15:42:45.585Z,100782.72
2023-02-27T15:45:20.901Z,100777.47
2023-02-27T15:47:49.270Z,100778.59
2023-02-27T15:50:17.235Z,100770.91
2023-02-27T15:53:12.498Z,100778.09
2023-02-27T15:55:47.144Z,100783.69
2023-02-27T15:58:31.211Z,100782.38
2023-02-27T16:01:29.981Z,100779.72
2023-02-27T16:04:02.040Z,100772.81
2023-02-27T16:06:35.273Z,100787.19
2023-02-27T16:09:31.595Z,100773.38
2023-02-27T16:12:22.101Z,100772.16
2023-02-27T16:15:09.214Z,100779.03
2023-02-27T16:17:37.141Z,100783.00
2023-02-27T16:20:28.450Z,100779.31
2023-02-27T16:23:23.645Z,100787.97
2023-02-27T16:26:40.352Z,100792.59
2023-02-27T16:29:21.827Z,100785.03
2023-02-27T16:31:54.777Z,100795.94
2023-02-27T16:34:47.602Z,100793.81
2023-02-27T16:37:39.469Z,100811.88
2023-02-27T16:40:37.758Z,100821.16
2023-02-27T16:43:05.526Z,100822.19
2023-02-27T16:45:33.673Z,100828.88
2023-02-27T16:48:01.778Z,100836.84
2023-02-27T16:50:39.018Z,100841.59
2023-02-27T16:53:06.808Z,100858.81
2023-02-27T16:55:39.220Z,100856.16
2023-02-27T16:58:07.110Z,100849.28
2023-02-27T17:00:35.337Z,100851.34
2023-02-27T17:03:02.898Z,100852.44
2023-02-27T17:05:30.932Z,100848.19
2023-02-27T17:07:58.787Z,100840.22
2023-02-27T17:10:27.280Z,100843.16
2023-02-27T17:12:54.876Z,100840.78
2023-02-27T17:15:22.760Z,100833.69
2023-02-27T17:17:50.469Z,100838.97
2023-02-27T17:20:18.561Z,100846.13
2023-02-27T17:22:46.155Z,100851.97
2023-02-27T17:25:14.746Z,100866.31
2023-02-27T17:27:44.255Z,100862.88
2023-02-27T17:30:14.524Z,100861.00
2023-02-27T17:32:42.186Z,100846.66
2023-02-27T17:35:11.141Z,100842.16
2023-02-27T17:37:39.474Z,100862.59
2023-02-27T17:40:08.474Z,100872.63
2023-02-27T17:42:37.454Z,100855.94
2023-02-27T17:45:07.926Z,100853.78
2023-02-27T17:47:35.596Z,100865.75
2023-02-27T17:50:05.333Z,100874.78
2023-02-27T17:52:36.221Z,100878.78
2023-02-27T17:55:05.077Z,100859.41
2023-02-27T17:57:37.322Z,100866.81
2023-02-27T18:00:10.280Z,100856.72
2023-02-27T18:02:37.842Z,100859.09
2023-02-27T18:05:06.671Z,100863.63
2023-02-27T18:07:34.762Z,100865.22
2023-02-27T18:10:05.630Z,100870.53
2023-02-27T18:12:33.452Z,100872.88
2023-02-27T18:15:02.508Z,100865.94
2023-02-27T18:17:30.026Z,100865.41
2023-02-27T18:19:58.252Z,100874.16
2023-02-27T18:22:26.440Z,100864.81
2023-02-27T18:24:55.348Z,100857.41
2023-02-27T18:27:23.135Z,100868.75
2023-02-27T18:29:50.979Z,100879.88
2023-02-27T18:32:18.666Z,100880.38
2023-02-27T18:34:46.609Z,100879.84
2023-02-27T18:37:14.278Z,100883.00
2023-02-27T18:39:44.274Z,100873.41
2023-02-27T18:42:11.853Z,100871.25
2023-02-27T18:44:41.445Z,100868.09
2023-02-27T18:47:11.617Z,100869.13
2023-02-27T18:49:44.610Z,100884.28
2023-02-27T18:52:13.907Z,100879.75
2023-02-27T18:54:43.278Z,100888.75
2023-02-27T18:57:11.013Z,100895.34
2023-02-27T18:59:41.301Z,100902.50
2023-02-27T19:02:17.520Z,100903.28
2023-02-27T19:04:47.214Z,100896.09
2023-02-27T19:07:16.303Z,100904.59
2023-02-27T19:09:44.707Z,100907.31
2023-02-27T19:12:12.680Z,100906.25
2023-02-27T19:14:41.413Z,100903.13
2023-02-27T19:17:09.165Z,100898.38
2023-02-27T19:19:37.527Z,100902.63
2023-02-27T19:22:05.237Z,100908.44
2023-02-27T19:24:33.390Z,100914.50
2023-02-27T19:27:01.182Z,100916.88
2023-02-27T19:29:29.055Z,100920.63
2023-02-27T19:31:56.602Z,100917.97
2023-02-27T19:34:25.103Z,100907.34
2023-02-27T19:36:53.039Z,100911.06
2023-02-27T19:39:23.503Z,100903.66
2023-02-27T19:41:51.254Z,100907.41
2023-02-27T19:44:19.328Z,100903.97
2023-02-27T19:46:51.475Z,100917.78
2023-02-27T19:49:20.143Z,100919.94
2023-02-27T19:51:47.788Z,100923.09
2023-02-27T19:54:16.799Z,100917.00
2023-02-27T19:56:44.449Z,100922.28
2023-02-27T19:59:13.136Z,100924.94
2023-02-27T20:01:41.584Z,100929.19
2023-02-27T20:04:11.588Z,100928.09
2023-02-27T20:06:44.042Z,100931.28
2023-02-27T20:09:17.506Z,100929.69
2023-02-27T20:11:47.798Z,100935.00
2023-02-27T20:14:17.504Z,100938.72
2023-02-27T20:16:46.275Z,100936.66
2023-02-27T20:19:18.096Z,100932.91
2023-02-27T20:21:47.171Z,100928.09
2023-02-27T20:24:16.546Z,100924.19
2023-02-27T20:26:50.188Z,100934.59
2023-02-27T20:29:24.568Z,100937.75
2023-02-27T20:31:55.542Z,100940.41
2023-02-27T20:34:26.551Z,100941.19
2023-02-27T20:37:03.257Z,100934.31
2023-02-27T20:39:31.255Z,100926.84
2023-02-27T20:41:58.937Z,100938.50
2023-02-27T20:44:26.977Z,100948.09
2023-02-27T20:46:54.693Z,100941.75
2023-02-27T20:49:23.382Z,100944.69
2023-02-27T20:51:51.077Z,100947.38
2023-02-27T20:54:20.783Z,100956.69
2023-02-27T20:56:52.269Z,100957.00
2023-02-27T20:59:22.197Z,100957.81
2023-02-27T21:01:52.664Z,100961.00
2023-02-27T21:04:42.665Z,100965.53
2023-02-27T21:07:14.153Z,100962.69
2023-02-27T21:09:42.670Z,100969.84
2023-02-27T21:12:12.308Z,100974.13
2023-02-27T21:14:40.286Z,100973.28
2023-02-27T21:17:08.200Z,100970.91
2023-02-27T21:19:36.894Z,100977.78
2023-02-27T21:22:04.579Z,100987.31
2023-02-27T21:24:32.590Z,100974.56
2023-02-27T21:27:00.314Z,100981.44
2023-02-27T21:29:28.253Z,100989.13
2023-02-27T21:31:55.856Z,100994.19
2023-02-27T21:34:28.884Z,100983.06
2023-02-27T21:36:56.696Z,100989.44
2023-02-27T21:39:30.198Z,100996.34
2023-02-27T21:41:59.660Z,100999.00
2023-02-27T21:44:29.706Z,100993.41
2023-02-27T21:46:57.184Z,100987.81
2023-02-27T21:49:28.934Z,100996.34
2023-02-27T21:51:56.430Z,100981.19
2023-02-27T21:54:24.531Z,100984.13
2023-02-27T21:56:52.450Z,100987.31
2023-02-27T21:59:21.714Z,100986.78
2023-02-27T22:01:50.565Z,100985.72
2023-02-27T22:04:20.668Z,100983.09
2023-02-27T22:06:50.958Z,100981.53
2023-02-27T22:09:19.557Z,100986.31
2023-02-27T22:11:48.416Z,100971.00
2023-02-27T22:14:16.936Z,100960.13
2023-02-27T22:16:44.538Z,100966.53
2023-02-27T22:19:19.758Z,100977.41
2023-02-27T22:21:48.037Z,100987.47
2023-02-27T22:24:16.487Z,101003.13
2023-02-27T22:26:44.688Z,101001.28
2023-02-27T22:29:12.565Z,101003.41
2023-02-27T22:31:40.403Z,101006.84
2023-02-27T22:34:15.195Z,101003.41
2023-02-27T22:36:45.379Z,101003.66
2023-02-27T22:39:13.651Z,101000.72
2023-02-27T22:41:43.114Z,101002.81
2023-02-27T22:44:15.525Z,101001.22
2023-02-27T22:46:47.608Z,101011.81
2023-02-27T22:49:22.757Z,101006.53
2023-02-27T22:51:52.206Z,101009.47
2023-02-27T22:54:23.223Z,101007.13
2023-02-27T22:56:53.966Z,100997.88
2023-02-27T22:59:23.309Z,101002.66
2023-02-27T23:01:51.587Z,101001.88
2023-02-27T23:04:22.290Z,100997.66
2023-02-27T23:06:52.698Z,100993.41
2023-02-27T23:09:25.464Z,101002.66
2023-02-27T23:11:55.135Z,101009.31
2023-02-27T23:14:23.807Z,101001.34
2023-02-27T23:16:51.649Z,100996.59
2023-02-27T23:19:21.214Z,101005.59
2023-02-27T23:21:49.254Z,101007.19
2023-02-27T23:24:19.604Z,101010.91
2023-02-27T23:26:50.584Z,101015.94
2023-02-27T23:29:18.753Z,101018.09
2023-02-27T23:31:46.755Z,101027.38
2023-02-27T23:34:14.696Z,101030.03
2023-02-27T23:36:42.206Z,101025.81
2023-02-27T23:39:10.463Z,101030.03
2023-02-27T23:41:38.186Z,101026.34
2023-02-27T23:44:06.357Z,101025.53
2023-02-27T23:46:34.049Z,101024.47
2023-02-27T23:49:02.915Z,101024.47
2023-02-27T23:51:31.141Z,101025.28
2023-02-27T23:54:00.250Z,101029.25
2023-02-27T23:56:30.642Z,101025.03
2023-02-27T23:59:05.229Z,101029.78
